createdAt,value
2022-08-02T00:01:38.038Z,18.30
2022-08-02T00:04:11.175Z,18.30
2022-08-02T00:06:44.231Z,18.20
2022-08-02T00:09:17.433Z,18.20
2022-08-02T00:11:54.753Z,18.20
2022-08-02T00:14:27.804Z,18.20
2022-08-02T00:17:00.712Z,18.20
2022-08-02T00:19:34.208Z,18.20
2022-08-02T00:22:07.459Z,18.20
2022-08-02T00:24:40.958Z,18.20
2022-08-02T00:27:13.967Z,18.20
2022-08-02T00:29:52.758Z,18.20
2022-08-02T00:32:27.613Z,18.10
2022-08-02T00:35:00.792Z,18.10
2022-08-02T00:37:38.205Z,18.10
2022-08-02T00:40:12.200Z,17.90
2022-08-02T00:42:45.200Z,17.90
2022-08-02T00:45:18.140Z,17.90
2022-08-02T00:47:51.083Z,17.90
2022-08-02T00:50:24.157Z,17.90
2022-08-02T00:52:57.529Z,17.90
2022-08-02T00:55:31.501Z,17.90
2022-08-02T00:58:05.000Z,17.90
2022-08-02T01:00:38.066Z,17.90
2022-08-02T01:03:10.941Z,17.90
2022-08-02T01:06:10.182Z,17.80
2022-08-02T01:08:40.120Z,17.80
2022-08-02T01:11:13.101Z,17.70
2022-08-02T01:13:46.112Z,17.70
2022-08-02T01:16:23.352Z,17.60
2022-08-02T01:19:02.615Z,17.60
2022-08-02T01:22:11.702Z,17.50
2022-08-02T01:25:06.805Z,17.50
2022-08-02T01:28:17.326Z,17.40
2022-08-02T01:30:57.336Z,17.40
2022-08-02T01:33:38.740Z,17.40
2022-08-02T01:36:14.278Z,17.40
2022-08-02T01:38:50.138Z,17.40
2022-08-02T01:41:26.747Z,17.40
2022-08-02T01:44:01.210Z,17.40
2022-08-02T01:46:35.362Z,17.30
2022-08-02T01:49:14.944Z,17.30
2022-08-02T01:52:11.084Z,17.30
2022-08-02T01:54:47.286Z,17.30
2022-08-02T01:57:22.516Z,17.20
2022-08-02T01:59:57.706Z,17.20
2022-08-02T02:02:32.520Z,17.20
2022-08-02T02:05:06.393Z,17.20
2022-08-02T02:07:41.078Z,17.20
2022-08-02T02:10:16.693Z,17.20
2022-08-02T02:12:53.822Z,17.20
2022-08-02T02:15:27.371Z,17.30
2022-08-02T02:18:12.839Z,17.30
2022-08-02T02:20:47.657Z,17.30
2022-08-02T02:23:23.750Z,17.30
2022-08-02T02:26:00.915Z,17.20
2022-08-02T02:28:38.850Z,17.20
2022-08-02T02:31:15.806Z,17.20
2022-08-02T02:34:13.775Z,17.30
2022-08-02T02:36:50.339Z,17.30
2022-08-02T02:39:24.029Z,17.40
2022-08-02T02:42:01.424Z,17.40
2022-08-02T02:44:36.244Z,17.40
2022-08-02T02:47:11.370Z,17.40
2022-08-02T02:49:46.206Z,17.40
2022-08-02T02:52:20.382Z,17.40
2022-08-02T02:54:55.162Z,17.30
2022-08-02T02:57:28.310Z,17.30
2022-08-02T03:00:01.980Z,17.30
2022-08-02T03:02:36.677Z,17.30
2022-08-02T03:05:11.128Z,17.30
2022-08-02T03:07:44.049Z,17.20
2022-08-02T03:10:17.067Z,17.20
2022-08-02T03:12:50.691Z,17.20
2022-08-02T03:15:26.871Z,17.20
2022-08-02T03:17:59.807Z,17.20
2022-08-02T03:20:32.776Z,17.20
2022-08-02T03:23:05.680Z,17.10
2022-08-02T03:25:40.129Z,17.00
2022-08-02T03:28:13.009Z,17.00
2022-08-02T03:30:45.970Z,17.00
2022-08-02T03:33:20.187Z,17.00
2022-08-02T03:35:55.959Z,16.90
2022-08-02T03:41:03.688Z,16.80
2022-08-02T03:43:38.419Z,16.80
2022-08-02T03:46:15.797Z,16.80
2022-08-02T03:48:50.581Z,16.80
2022-08-02T03:51:24.081Z,16.80
2022-08-02T03:53:57.367Z,16.80
2022-08-02T03:56:36.938Z,16.70
2022-08-02T03:59:12.512Z,16.70
2022-08-02T04:01:46.309Z,16.70
2022-08-02T04:04:19.446Z,16.70
2022-08-02T04:06:52.657Z,16.70
2022-08-02T04:09:25.844Z,16.70
2022-08-02T04:11:58.792Z,16.70
2022-08-02T04:14:31.855Z,16.70
2022-08-02T04:17:11.176Z,16.70
2022-08-02T04:19:47.694Z,16.70
2022-08-02T04:22:29.244Z,16.70
2022-08-02T04:25:04.934Z,16.70
2022-08-02T04:28:15.426Z,16.70
2022-08-02T04:30:33.914Z,16.70
2022-08-02T04:33:08.136Z,16.70
2022-08-02T04:35:41.739Z,16.80
2022-08-02T04:38:17.014Z,16.80
2022-08-02T04:40:56.742Z,16.90
2022-08-02T04:43:29.730Z,16.80
2022-08-02T04:46:03.922Z,16.90
2022-08-02T04:48:37.020Z,16.80
2022-08-02T04:51:09.947Z,16.80
2022-08-02T04:53:42.956Z,16.80
2022-08-02T04:56:15.945Z,16.80
2022-08-02T04:58:48.883Z,16.80
2022-08-02T05:01:22.014Z,16.80
2022-08-02T05:03:54.994Z,16.90
2022-08-02T05:06:28.026Z,16.90
2022-08-02T05:09:01.025Z,16.90
2022-08-02T05:11:35.930Z,16.90
2022-08-02T05:14:12.674Z,16.90
2022-08-02T05:16:48.961Z,17.00
2022-08-02T05:19:22.164Z,17.10
2022-08-02T05:21:55.156Z,17.10
2022-08-02T05:24:30.237Z,17.20
2022-08-02T05:27:17.062Z,17.30
2022-08-02T05:29:57.224Z,17.40
2022-08-02T05:32:34.613Z,17.50
2022-08-02T05:37:57.302Z,17.70
2022-08-02T05:40:30.342Z,17.80
2022-08-02T05:43:12.307Z,18.00
2022-08-02T05:45:45.768Z,18.10
2022-08-02T05:48:21.669Z,18.20
2022-08-02T05:55:50.105Z,18.50
2022-08-02T05:58:43.398Z,18.80
2022-08-02T06:01:42.151Z,19.00
2022-08-02T06:04:24.630Z,19.30
2022-08-02T06:07:06.607Z,19.50
2022-08-02T06:09:41.825Z,19.70
2022-08-02T06:12:17.330Z,19.90
2022-08-02T06:14:54.530Z,20.10
2022-08-02T06:17:29.310Z,20.30
2022-08-02T06:20:03.446Z,20.40
2022-08-02T06:22:40.465Z,20.60
2022-08-02T06:25:50.119Z,20.80
2022-08-02T06:28:11.195Z,20.90
2022-08-02T06:30:44.908Z,21.10
2022-08-02T06:33:17.929Z,21.30
2022-08-02T06:35:51.121Z,21.50
2022-08-02T06:38:32.539Z,21.60
2022-08-02T06:41:09.149Z,21.80
2022-08-02T06:43:53.921Z,21.90
2022-08-02T06:46:57.422Z,22.10
2022-08-02T06:49:20.493Z,22.30
2022-08-02T06:51:53.653Z,22.60
2022-08-02T06:54:26.682Z,22.80
2022-08-02T06:57:00.670Z,22.90
2022-08-02T06:59:33.715Z,23.10
2022-08-02T07:02:06.929Z,23.30
2022-08-02T07:04:44.833Z,23.50
2022-08-02T07:07:18.304Z,23.60
2022-08-02T07:09:56.401Z,23.70
2022-08-02T07:12:35.212Z,23.70
2022-08-02T07:15:10.189Z,23.80
2022-08-02T07:17:43.646Z,23.90
2022-08-02T07:20:16.643Z,23.90
2022-08-02T07:22:49.937Z,23.80
2022-08-02T07:25:23.014Z,23.80
2022-08-02T07:27:56.571Z,24.00
2022-08-02T07:30:30.487Z,24.10
2022-08-02T07:33:04.249Z,24.20
2022-08-02T07:35:37.575Z,24.10
2022-08-02T07:38:13.080Z,24.20
2022-08-02T07:40:47.244Z,24.40
2022-08-02T07:48:34.950Z,24.60
2022-08-02T07:51:08.533Z,24.80
2022-08-02T07:53:51.412Z,24.70
2022-08-02T07:56:35.090Z,24.80
2022-08-02T07:59:10.356Z,24.80
2022-08-02T08:42:54.466Z,26.30
2022-08-02T08:45:27.631Z,26.30
2022-08-02T08:48:06.277Z,26.40
2022-08-02T08:50:43.420Z,26.40
2022-08-02T08:53:17.434Z,26.60
2022-08-02T08:55:56.476Z,26.60
2022-08-02T08:58:29.564Z,26.70
2022-08-02T09:01:03.018Z,26.80
2022-08-02T09:03:36.243Z,26.90
2022-08-02T09:06:09.582Z,27.00
2022-08-02T09:08:42.597Z,27.00
2022-08-02T09:11:20.264Z,27.10
2022-08-02T09:13:58.882Z,27.00
2022-08-02T09:16:32.260Z,27.10
2022-08-02T09:19:21.060Z,27.20
2022-08-02T09:22:11.745Z,27.10
2022-08-02T09:24:48.201Z,27.30
2022-08-02T09:27:23.150Z,27.40
2022-08-02T09:30:13.807Z,27.50
2022-08-02T09:32:49.759Z,27.40
2022-08-02T09:36:06.287Z,27.40
2022-08-02T09:39:05.339Z,27.30
2022-08-02T09:41:41.809Z,27.00
2022-08-02T09:44:16.871Z,27.10
2022-08-02T09:46:49.970Z,27.20
2022-08-02T09:49:23.138Z,27.30
2022-08-02T09:51:58.692Z,27.60
2022-08-02T09:54:33.060Z,27.80
2022-08-02T09:59:53.563Z,28.20
2022-08-02T10:02:26.854Z,28.40
2022-08-02T10:05:01.685Z,28.60
2022-08-02T10:07:35.754Z,28.80
2022-08-02T10:10:09.186Z,28.80
2022-08-02T10:12:42.083Z,28.60
2022-08-02T10:15:16.842Z,28.40
2022-08-02T10:17:49.728Z,28.20
2022-08-02T10:20:24.571Z,28.10
2022-08-02T10:22:58.648Z,28.00
2022-08-02T10:25:32.530Z,28.10
2022-08-02T10:28:08.352Z,28.30
2022-08-02T10:30:45.609Z,28.30
2022-08-02T10:33:19.291Z,28.30
2022-08-02T10:36:06.841Z,28.30
2022-08-02T10:38:41.539Z,28.50
2022-08-02T10:41:14.460Z,28.70
2022-08-02T10:43:49.026Z,29.00
2022-08-02T10:46:27.680Z,29.30
2022-08-02T10:52:08.733Z,29.80
2022-08-02T10:54:56.473Z,29.90
2022-08-02T10:57:35.074Z,29.80
2022-08-02T11:00:25.826Z,29.80
2022-08-02T11:02:58.780Z,29.90
2022-08-02T11:05:42.320Z,30.00
2022-08-02T11:08:21.187Z,29.90
2022-08-02T11:11:02.137Z,29.60
2022-08-02T11:14:03.923Z,29.30
2022-08-02T11:16:55.261Z,29.30
2022-08-02T11:19:28.677Z,29.60
2022-08-02T11:22:07.791Z,29.80
2022-08-02T11:24:42.578Z,29.80
2022-08-02T11:27:22.348Z,29.70
2022-08-02T11:29:56.012Z,29.60
2022-08-02T11:32:30.671Z,29.60
2022-08-02T11:35:04.167Z,29.60
2022-08-02T11:37:42.461Z,29.90
2022-08-02T11:40:19.446Z,30.20
2022-08-02T11:42:53.781Z,30.50
2022-08-02T11:45:29.641Z,30.80
2022-08-02T11:48:03.292Z,31.00
2022-08-02T11:50:36.901Z,31.10
2022-08-02T11:53:14.737Z,31.40
2022-08-02T11:55:47.647Z,31.50
2022-08-02T11:58:20.664Z,31.70
2022-08-02T12:00:54.230Z,31.90
2022-08-02T12:03:27.255Z,32.00
2022-08-02T12:06:06.062Z,32.10
2022-08-02T12:08:40.142Z,31.90
2022-08-02T12:11:18.563Z,31.70
2022-08-02T12:13:57.174Z,31.70
2022-08-02T12:16:54.537Z,31.90
2022-08-02T12:19:27.918Z,32.10
2022-08-02T12:22:07.555Z,32.10
2022-08-02T12:24:43.924Z,32.30
2022-08-02T12:27:37.472Z,32.20
2022-08-02T12:30:13.765Z,32.20
2022-08-02T12:32:47.446Z,32.10
2022-08-02T12:35:26.305Z,31.90
2022-08-02T12:38:09.990Z,31.70
2022-08-02T12:40:43.193Z,31.50
2022-08-02T12:43:25.753Z,31.30
2022-08-02T12:45:58.729Z,31.20
2022-08-02T12:48:39.156Z,31.10
2022-08-02T12:51:18.818Z,30.80
2022-08-02T12:53:58.825Z,30.50
2022-08-02T12:56:37.103Z,30.10
2022-08-02T12:59:11.479Z,29.80
2022-08-02T13:01:45.819Z,29.70
2022-08-02T13:04:18.852Z,29.50
2022-08-02T13:06:51.893Z,29.50
2022-08-02T13:09:29.244Z,29.50
2022-08-02T13:12:02.759Z,29.40
2022-08-02T13:14:41.912Z,29.40
2022-08-02T13:17:15.391Z,29.40
2022-08-02T13:19:51.127Z,29.50
2022-08-02T13:22:26.616Z,29.50
2022-08-02T13:25:02.001Z,29.50
2022-08-02T13:27:36.595Z,29.60
2022-08-02T13:30:09.685Z,29.50
2022-08-02T13:32:42.674Z,29.50
2022-08-02T13:35:17.890Z,29.40
2022-08-02T13:37:51.469Z,29.40
2022-08-02T13:40:24.454Z,29.40
2022-08-02T13:42:57.780Z,29.30
2022-08-02T13:45:30.672Z,29.30
2022-08-02T13:48:10.784Z,29.30
2022-08-02T13:50:50.141Z,29.30
2022-08-02T13:53:25.075Z,29.30
2022-08-02T13:55:59.776Z,29.40
2022-08-02T13:58:33.418Z,29.40
2022-08-02T14:01:06.560Z,29.40
2022-08-02T14:04:08.674Z,29.50
2022-08-02T14:06:33.788Z,29.50
2022-08-02T14:09:06.733Z,29.50
2022-08-02T14:11:39.836Z,29.50
2022-08-02T14:14:16.276Z,29.50
2022-08-02T14:16:50.079Z,29.50
2022-08-02T14:19:23.569Z,29.50
2022-08-02T14:22:21.266Z,29.40
2022-08-02T14:24:51.003Z,29.40
2022-08-02T14:27:24.182Z,29.40
2022-08-02T14:29:58.421Z,29.40
2022-08-02T14:32:32.542Z,29.50
2022-08-02T14:35:06.140Z,29.50
2022-08-02T14:37:39.692Z,29.50
2022-08-02T14:40:30.918Z,29.40
2022-08-02T14:43:05.142Z,29.40
2022-08-02T14:45:40.884Z,29.30
2022-08-02T14:48:14.612Z,29.30
2022-08-02T14:50:47.587Z,29.30
2022-08-02T14:53:21.055Z,29.20
2022-08-02T14:55:54.028Z,29.20
2022-08-02T14:58:27.221Z,29.10
2022-08-02T15:01:00.242Z,29.10
2022-08-02T15:03:33.530Z,29.10
2022-08-02T15:06:17.204Z,29.20
2022-08-02T15:08:50.486Z,29.20
2022-08-02T15:11:23.558Z,29.20
2022-08-02T15:13:59.139Z,29.20
2022-08-02T15:16:55.406Z,29.20
2022-08-02T15:19:57.043Z,29.10
2022-08-02T15:22:22.525Z,29.10
2022-08-02T15:24:57.074Z,29.00
2022-08-02T15:27:30.032Z,29.00
2022-08-02T15:30:03.974Z,29.00
2022-08-02T15:32:37.252Z,29.00
2022-08-02T15:35:10.396Z,28.90
2022-08-02T15:37:43.558Z,28.90
2022-08-02T15:40:17.009Z,28.90
2022-08-02T15:42:50.041Z,28.90
2022-08-02T15:45:24.799Z,28.90
2022-08-02T15:47:57.818Z,28.90
2022-08-02T15:50:31.069Z,28.90
2022-08-02T15:53:04.165Z,28.80
2022-08-02T15:55:39.849Z,28.80
2022-08-02T15:58:26.497Z,28.80
2022-08-02T16:01:00.223Z,28.80
2022-08-02T16:03:33.235Z,28.80
2022-08-02T16:06:06.316Z,28.80
2022-08-02T16:08:39.263Z,28.70
2022-08-02T16:11:24.702Z,28.70
2022-08-02T16:13:59.093Z,28.70
2022-08-02T16:16:33.949Z,28.60
2022-08-02T16:19:47.941Z,28.60
2022-08-02T16:22:00.989Z,28.50
2022-08-02T16:24:34.066Z,28.50
2022-08-02T16:27:08.498Z,28.40
2022-08-02T16:29:41.722Z,28.40
2022-08-02T16:32:16.570Z,28.30
2022-08-02T16:35:08.191Z,28.30
2022-08-02T16:37:50.451Z,28.20
2022-08-02T16:40:27.129Z,28.10
2022-08-02T16:43:09.232Z,28.10
2022-08-02T16:45:42.462Z,28.00
2022-08-02T16:48:18.246Z,28.00
2022-08-02T16:50:51.272Z,27.90
2022-08-02T16:53:36.551Z,27.90
2022-08-02T16:56:10.598Z,27.80
2022-08-02T16:58:48.804Z,27.80
2022-08-02T17:01:24.051Z,27.70
2022-08-02T17:04:00.617Z,27.70
2022-08-02T17:06:33.554Z,27.70
2022-08-02T17:09:06.501Z,27.70
2022-08-02T17:11:46.658Z,27.70
2022-08-02T17:14:55.066Z,27.70
2022-08-02T17:17:34.203Z,27.70
2022-08-02T17:20:08.600Z,27.60
2022-08-02T17:22:44.117Z,27.60
2022-08-02T17:25:17.624Z,27.60
2022-08-02T17:27:55.613Z,27.60
2022-08-02T17:30:29.042Z,27.50
2022-08-02T17:33:01.979Z,27.40
2022-08-02T17:35:43.849Z,27.40
2022-08-02T17:38:27.398Z,27.40
2022-08-02T17:41:01.299Z,27.30
2022-08-02T17:43:41.142Z,27.30
2022-08-02T17:46:14.305Z,27.30
2022-08-02T17:49:05.787Z,27.20
2022-08-02T17:52:49.097Z,27.10
2022-08-02T17:54:32.918Z,27.10
2022-08-02T17:57:05.971Z,27.10
2022-08-02T17:59:42.412Z,27.10
2022-08-02T18:02:15.804Z,27.00
2022-08-02T18:04:49.760Z,27.00
2022-08-02T18:07:25.238Z,26.90
2022-08-02T18:09:58.315Z,27.00
2022-08-02T18:12:32.780Z,26.90
2022-08-02T18:15:14.246Z,26.90
2022-08-02T18:17:48.006Z,26.90
2022-08-02T18:20:23.855Z,26.90
2022-08-02T18:22:58.720Z,26.80
2022-08-02T18:25:37.803Z,26.80
2022-08-02T18:28:21.533Z,26.80
2022-08-02T18:31:06.519Z,26.70
2022-08-02T18:33:59.135Z,26.70
2022-08-02T18:36:34.211Z,26.60
2022-08-02T18:42:03.050Z,26.60
2022-08-02T18:44:37.325Z,26.50
2022-08-02T18:47:12.541Z,26.50
2022-08-02T18:49:46.518Z,26.50
2022-08-02T18:52:30.749Z,26.40
2022-08-02T18:55:17.153Z,26.30
2022-08-02T18:58:19.191Z,26.30
2022-08-02T19:00:56.354Z,26.20
2022-08-02T19:06:27.533Z,26.10
2022-08-02T19:09:13.203Z,26.00
2022-08-02T19:11:47.223Z,26.00
2022-08-02T19:14:27.472Z,25.90
2022-08-02T19:17:15.933Z,25.90
2022-08-02T19:19:55.213Z,25.80
2022-08-02T19:22:29.922Z,25.70
2022-08-02T19:25:03.803Z,25.70
2022-08-02T19:27:37.688Z,25.60
2022-08-02T19:30:11.547Z,25.50
2022-08-02T19:32:58.884Z,25.40
2022-08-02T19:38:26.170Z,25.30
2022-08-02T19:40:59.900Z,25.20
2022-08-02T19:44:23.896Z,25.10
2022-08-02T19:46:30.983Z,25.10
2022-08-02T19:49:19.819Z,24.90
2022-08-02T19:51:55.569Z,24.90
2022-08-02T19:54:54.413Z,24.80
2022-08-02T20:00:21.987Z,24.60
2022-08-02T20:02:58.436Z,24.50
2022-08-02T20:05:33.353Z,24.40
2022-08-02T20:08:07.501Z,24.30
2022-08-02T20:10:42.242Z,24.20
2022-08-02T20:13:23.529Z,24.10
2022-08-02T20:15:58.552Z,24.00
2022-08-02T20:18:32.233Z,24.00
2022-08-02T20:21:07.354Z,23.90
2022-08-02T20:24:00.563Z,23.80
2022-08-02T20:26:35.205Z,23.70
2022-08-02T20:29:09.345Z,23.60
2022-08-02T20:31:42.587Z,23.60
2022-08-02T20:34:15.792Z,23.50
2022-08-02T20:36:53.858Z,23.50
2022-08-02T20:39:43.575Z,23.40
2022-08-02T20:42:23.650Z,23.30
2022-08-02T20:44:57.489Z,23.20
2022-08-02T20:47:39.226Z,23.20
2022-08-02T20:50:32.103Z,23.10
2022-08-02T20:53:05.839Z,23.10
2022-08-02T20:55:43.766Z,23.00
2022-08-02T20:58:20.792Z,22.90
2022-08-02T21:01:00.618Z,22.90
2022-08-02T21:03:39.854Z,22.90
2022-08-02T21:06:14.839Z,22.80
2022-08-02T21:08:49.961Z,22.80
2022-08-02T21:14:18.749Z,22.60
2022-08-02T21:16:52.018Z,22.60
2022-08-02T21:19:25.229Z,22.60
2022-08-02T21:21:59.975Z,22.60
2022-08-02T21:24:33.085Z,22.50
2022-08-02T21:27:51.958Z,22.40
2022-08-02T21:30:00.507Z,22.40
2022-08-02T21:32:34.394Z,22.30
2022-08-02T21:35:08.821Z,22.20
2022-08-02T21:37:44.700Z,22.20
2022-08-02T21:40:19.264Z,22.10
2022-08-02T21:42:53.965Z,22.00
2022-08-02T21:45:27.073Z,22.00
2022-08-02T21:48:01.620Z,22.00
2022-08-02T21:50:34.620Z,22.00
2022-08-02T21:53:13.323Z,21.80
2022-08-02T22:03:55.551Z,21.60
2022-08-02T22:06:29.102Z,21.70
2022-08-02T22:09:02.419Z,21.70
2022-08-02T22:11:35.472Z,21.60
2022-08-02T22:14:08.581Z,21.60
2022-08-02T22:16:45.067Z,21.60
2022-08-02T22:19:22.969Z,21.50
2022-08-02T22:21:57.899Z,21.50
2022-08-02T22:24:31.063Z,21.50
2022-08-02T22:27:04.170Z,21.50
2022-08-02T22:29:37.495Z,21.50
2022-08-02T22:32:11.152Z,21.50
2022-08-02T22:58:52.547Z,25.40
2022-08-02T22:58:58.415Z,26.60
2022-08-02T22:59:06.042Z,24.70
2022-08-02T22:59:11.916Z,22.70
2022-08-02T23:45:48.232Z,20.60
2022-08-02T23:48:21.146Z,20.50
2022-08-02T23:50:54.128Z,20.50
2022-08-02T23:53:27.197Z,20.50
2022-08-02T23:56:00.276Z,20.40
2022-08-02T23:58:33.411Z,20.40
